Tiempo atmosférico en la estación meteorológica de Aguilar De Campoo, Palencia (910 m.)



Fecha
DESCASC
Temp. máxima en grados centígrados (hora)
DESCASC
Temp. mínima en grados centígrados (hora)
DESCASC
Temp. media en grados centígrados
DESCASC
Racha de viento máxima en m/sg (hora)
DESCASC
Velocidad máxima media en intervalos de 10 minutos(hora)
DESCASC
Precipitaciones diarias en mm
DESCASC
Precipitaciones de 00:00 a 06:00 en mm
DESCASC
Precipitaciones de 06:00 a 12:00 en mm
DESCASC
Precipitaciones de 12:00 a 18:00 en mm
DESCASC
Precipitaciones de 18:00 a 24:00 en mm
DESCASC
13-10-2019 21.3 (17:00) 13.7 (09:00) 17.5 11.67 (15:50) 5.56 (07:40) 0 0 0 0 0
12-10-2019 25.3 (15:30) 9.6 (08:00) 17.4 15 (18:00) 7.5 (13:50) 0.2 0 0 0 0.2
10-10-2019 20.9 (17:40) 3.5 (00:00) 12.2 5.83 (23:30) 3.33 (23:40) 0 0 0 0 0
09-10-2019 17.2 (15:00) 9.4 (00:00) 13.3 9.72 (18:10) 5.28 (17:40) 0 0 0 0 0
08-10-2019 27.1 (16:20) 4.9 (00:00) 16 10.83 (18:00) 6.67 (17:40) 0 0 0 0 0
07-10-2019 24 (17:10) 7.8 (00:00) 15.9 6.94 (19:20) 3.89 (18:40) 0 0 0 0 0
06-10-2019 19.3 (16:20) 10.2 (00:00) 14.7 9.72 (17:30) 5.56 (18:00) 0 0 0 0 0
05-10-2019 23.9 (17:50) 10.2 (09:20) 17 9.44 (19:50) 5.28 (18:40) 0 0 0 0 0
04-10-2019 21.9 (16:20) 4 (00:00) 12.9 9.72 (17:10) 6.11 (17:20) 0 0 0 0 0
03-10-2019 23.3 (17:30) 9 (00:00) 16.1 7.22 (19:40) 4.17 (20:20) 0 0 0 0 0
02-10-2019 17.9 (17:20) 8.1 (00:00) 13 7.78 (17:50) 4.17 (15:50) 0 0 0 0 0
01-10-2019 23.5 (15:40) 7.7 (00:00) 15.6 10.28 (18:30) 5.83 (18:20) 0 0 0 0 0
30-09-2019 25 (16:50) 5 (00:00) 15 8.33 (17:30) 3.89 (17:30) 0 0 0 0 0
29-09-2019 25.5 (16:00) 4 (00:00) 14.8 11.39 (15:20) 5.83 (15:20) 0 0 0 0 0
28-09-2019 24 (17:40) 10.6 (00:00) 17.3 8.33 (14:50) 4.44 (15:40) 0 0 0 0 0
27-09-2019 23.8 (17:10) 4.6 (00:00) 14.2 8.89 (18:10) 5.56 (19:00) 0 0 0 0 0
26-09-2019 24.1 (17:20) 6.5 (00:00) 15.3 8.33 (16:00) 4.44 (15:30) 0 0 0 0 0
25-09-2019 19.9 (17:10) 9.9 (00:00) 14.9 7.5 (13:10) 3.33 (17:00) 0 0 0 0 0
24-09-2019 21.8 (18:00) 10.9 (00:00) 16.3 9.17 (20:10) 5.83 (12:20) 0 0 0 0 0
23-09-2019 17.4 (18:10) 7.3 (00:00) 12.3 10 (14:10) 4.44 (16:10) 0 0 0 0 0
22-09-2019 19 (17:30) 9.1 (00:00) 14.1 12.78 (01:00) 4.72 (12:40) 3.2 3.2 0 0 0
21-09-2019 17.8 (14:00) 12.6 (00:00) 15.2 10.56 (16:00) 5.28 (14:50) 3.4 2 0 0.6 0.8
20-09-2019 24 (15:50) 8.6 (00:00) 16.3 10 (16:20) 5.28 (16:20) 9.6 0 0 1 8.6
19-09-2019 23.7 (17:30) 9.2 (00:00) 16.5 6.11 (12:20) 3.33 (12:20) 0 0 0 0 0
18-09-2019 21.9 (17:20) 13.2 (00:00) 17.5 9.44 (03:20) 4.17 (03:20) 7.8 7.6 0.2 0 0
17-09-2019 26 (15:30) 10.7 (00:00) 18.3 8.61 (16:50) 3.89 (17:30) 0.2 0 0 0.2 0
16-09-2019 24.3 (16:00) 12 (00:00) 18.1 8.89 (19:10) 3.61 (17:40) 0 0 0 0 0

Gráficas

Temp. máximas Temp. mínimas Temp. medias Precipitaciones Rachas de viento máximas Velocidades máximas media en intervalos de 10 minutos

Datos horarios

Fecha y hora oficial Temperatura (ºC) Velocidad del viento (km/h) Dirección del viento Racha (km/h) Dirección de racha Precipitación (mm) Presión (hPa) Tendencia (hPa) Humedad (%)
2019-10-15 23:00:00 9.3 9 Noroeste 25 Norte 0 -- -- 86
2019-10-15 22:00:00 9.5 13 Norte 32 Noroeste 0 -- -- 83
2019-10-15 21:00:00 10.3 14 Noroeste 30 Noroeste 0 -- -- 78
2019-10-15 20:00:00 10.7 11 Noroeste 26 Noroeste 0 -- -- 76
2019-10-15 19:00:00 11.3 8 Noroeste 25 Noroeste 0 -- -- 69
2019-10-15 18:00:00 11.7 14 Noroeste 26 Noroeste 0 -- -- 65
2019-10-15 17:00:00 11.7 15 Norte 36 Norte 0 -- -- 65
2019-10-15 16:00:00 12.9 13 Norte 33 Norte 0 -- -- 61
2019-10-15 15:00:00 12.2 16 Norte 32 Noroeste 0 -- -- 59
2019-10-15 14:00:00 11.8 12 Noroeste 34 Noroeste 0 -- -- 62
2019-10-15 13:00:00 10.3 16 Norte 33 Noroeste 0 -- -- 67
2019-10-15 12:00:00 8.5 11 Noroeste 30 Noroeste 0 -- -- 77
2019-10-15 11:00:00 7.9 14 Noroeste 27 Noroeste 0 -- -- 79
2019-10-15 10:00:00 6.2 8 Norte 21 Nordeste 0 -- -- 84
2019-10-15 09:00:00 4.5 9 Norte 22 Norte 0 -- -- 91
2019-10-15 08:00:00 3.8 4 Norte 15 Norte 0 -- -- 91
2019-10-15 07:00:00 3.6 5 Noroeste 18 Noroeste 0 -- -- 92
2019-10-15 06:00:00 3.6 3 Sur 18 Noroeste 0 -- -- 92
2019-10-15 05:00:00 4.4 13 Norte 24 Norte 0 -- -- 90
2019-10-15 04:00:00 4.1 7 Norte 15 Nordeste 0 -- -- 91
2019-10-15 03:00:00 4.5 4 Nordeste 18 Norte 0 -- -- 89
2019-10-15 02:00:00 4.9 8 Norte 19 Norte 0 -- -- 89
2019-10-15 01:00:00 5.5 12 Norte 27 Norte 0 -- -- 87
2019-10-15 00:00:00 6 6 Noroeste 18 Norte 0 -- -- 90
2019-10-14 23:00:00 6.8 7 Norte 22 Noroeste 0 -- -- 88
2019-10-14 22:00:00 7.4 9 Norte 26 Norte 0 -- -- 87
2019-10-14 21:00:00 7.6 10 Norte 26 Noroeste 0 -- -- 88
2019-10-14 20:00:00 8.4 5 Noroeste 31 Norte 0.4 -- -- 87
2019-10-14 19:00:00 9.7 5 Oeste 29 Noroeste 0 -- -- 90
2019-10-14 18:00:00 10.3 15 Oeste 35 Oeste 0 -- -- 87
2019-10-14 17:00:00 10.6 12 Noroeste 36 Noroeste 0 -- -- 84
2019-10-14 16:00:00 10.3 9 Noroeste 30 Noroeste 0.8 -- -- 88
2019-10-14 15:00:00 11.4 14 Norte 37 Norte 0.2 -- -- 79
2019-10-14 14:00:00 12.7 16 Noroeste 40 Noroeste 0 -- -- 66
2019-10-14 13:00:00 11.9 14 Norte 43 Norte 0 -- -- 77
2019-10-14 12:00:00 10.6 15 Norte 36 Oeste 1.6 -- -- 90
2019-10-14 11:00:00 12.9 13 Noroeste 31 Oeste 0.4 -- -- 88
2019-10-14 10:00:00 12.4 7 Oeste 23 Noroeste 0.6 -- -- 87
2019-10-14 09:00:00 11.5 5 Norte 14 Nordeste 1 -- -- 90
2019-10-14 08:00:00 11.1 0 Calma 6 Oeste 1.2 -- -- 92
2019-10-14 07:00:00 11.9 2 Norte 10 Oeste 0 -- -- 79
2019-10-14 06:00:00 12.7 4 Oeste 12 Oeste 0 -- -- 74
2019-10-14 05:00:00 13.3 7 Oeste 16 Sudoeste 0 -- -- 70
2019-10-14 04:00:00 13.9 5 Noroeste 23 Norte 0 -- -- 68
2019-10-14 03:00:00 13.7 6 Norte 24 Noroeste 0 -- -- 69
2019-10-14 02:00:00 13.9 9 Norte 26 Norte 0 -- -- 68
2019-10-14 01:00:00 14.1 9 Norte 23 Noroeste 0 -- -- 66
2019-10-14 00:00:00 14.4 5 Noroeste 18 Noroeste 0 -- -- 64
2019-10-13 23:00:00 15.1 2 Sur 13 Noroeste 0 -- -- 61
2019-10-13 22:00:00 16.3 6 Norte 22 Norte 0 -- -- 57
2019-10-13 21:00:00 17.7 5 Noroeste 17 Oeste 0 -- -- 49
2019-10-13 20:00:00 18.5 6 Noroeste 24 Noroeste 0 -- -- 52
2019-10-13 19:00:00 19.9 11 Noroeste 31 Noroeste 0 -- -- 48
2019-10-13 18:00:00 21.2 14 Noroeste 35 Noroeste 0 -- -- 43
2019-10-13 17:00:00 21.3 12 Noroeste 33 Oeste 0 -- -- 44
2019-10-13 16:00:00 20 17 Noroeste 42 Noroeste 0 -- -- 49
2019-10-13 15:00:00 19.5 15 Noroeste 38 Noroeste 0 -- -- 52
2019-10-13 14:00:00 19.2 17 Noroeste 32 Oeste 0 -- -- 54
2019-10-13 13:00:00 17.5 17 Norte 37 Norte 0 -- -- 59
2019-10-13 12:00:00 16.6 19 Noroeste 40 Oeste 0 -- -- 64
2019-10-13 11:00:00 14.6 17 Norte 37 Noroeste 0 -- -- 72
2019-10-13 10:00:00 14.2 12 Noroeste 26 Norte 0 -- -- 81
2019-10-13 09:00:00 13.7 12 Norte 32 Nordeste 0 -- -- 83
2019-10-13 08:00:00 14.5 16 Norte 41 Norte 0 -- -- 83
2019-10-13 07:00:00 14.8 15 Noroeste 32 Norte 0 -- -- 83
2019-10-13 06:00:00 15.2 7 Noroeste 18 Oeste 0 -- -- 77
2019-10-13 05:00:00 15.6 5 Noroeste 28 Noroeste 0 -- -- 63
2019-10-13 04:00:00 16.5 14 Noroeste 41 Noroeste 0 -- -- 59
2019-10-13 03:00:00 17.3 14 Noroeste 33 Noroeste 0 -- -- 56
2019-10-13 02:00:00 18 13 Noroeste 39 Oeste 0 -- -- 55
2019-10-13 01:00:00 18.7 19 Noroeste 40 Oeste 0 -- -- 53
2019-10-13 00:00:00 18.7 12 Oeste 35 Oeste 0 -- -- 53
2019-10-12 23:00:00 19 13 Oeste 31 Oeste 0 -- -- 53
2019-10-12 22:00:00 19.2 10 Oeste 22 Sudoeste 0 -- -- 54
2019-10-12 21:00:00 20 8 Noroeste 31 Sudoeste 0.2 -- -- 54
2019-10-12 20:00:00 22.3 14 Oeste 38 Oeste 0 -- -- 43
2019-10-12 19:00:00 23.3 17 Noroeste 33 Norte 0 -- -- 37
2019-10-12 18:00:00 23.4 21 Noroeste 54 Noroeste 0 -- -- 44
2019-10-12 17:00:00 24.5 18 Noroeste 51 Oeste 0 -- -- 37
2019-10-12 16:00:00 25.2 26 Noroeste 52 Noroeste 0 -- -- 38
2019-10-12 15:00:00 25 19 Noroeste 46 Noroeste 0 -- -- 41
2019-10-12 14:00:00 23.3 23 Noroeste 49 Oeste 0 -- -- 46
2019-10-12 13:00:00 22 18 Noroeste 35 Oeste 0 -- -- 52
2019-10-12 12:00:00 19.7 13 Norte 27 Norte 0 -- -- 63
2019-10-12 11:00:00 17.1 9 Norte 18 Norte 0 -- -- 71
2019-10-12 10:00:00 13.5 3 Noroeste 10 Norte 0 -- -- 88
2019-10-12 09:00:00 11.1 0 Calma 7 Oeste 0 -- -- 94
2019-10-12 08:00:00 9.6 0 Calma 4 Noroeste 0 -- -- 93
2019-10-12 07:00:00 10.4 0 Calma 3 Este 0 -- -- 92
2019-10-12 06:00:00 10.2 0 Calma 3 Este 0 -- -- 92
2019-10-12 05:00:00 10.3 0 Calma 3 Oeste 0 -- -- 89
2019-10-12 04:00:00 12 0 Calma 5 Este 0 -- -- 86
2019-10-12 03:00:00 15.1 0 Calma 11 Noroeste 0 -- -- 80
2019-10-12 02:00:00 15.3 0 Calma 8 Sudoeste 0 -- -- 80
2019-10-12 01:00:00 16.8 4 Sudoeste 14 Sudoeste 0 -- -- 77
2019-10-12 00:00:00 16.9 2 Noroeste 15 Oeste 0 -- -- 75
2019-10-11 23:00:00 17.8 6 Oeste 26 Oeste 0.2 -- -- 71
2019-10-11 22:00:00 17.6 2 Este 5 Este 0 -- -- 61
2019-10-11 21:00:00 18.4 0 Calma 5 Norte 0 -- -- 62
2019-10-11 20:00:00 21.5 2 Noroeste 18 Norte 0 -- -- 49
2019-10-11 19:00:00 23.2 5 Noroeste 33 Noroeste 0 -- -- 46
2019-10-11 18:00:00 24.8 15 Noroeste 33 Noroeste 0 -- -- 41
2019-10-11 17:00:00 25.6 14 Noroeste 35 Norte 0 -- -- 40
2019-10-11 16:00:00 25.4 15 Noroeste 47 Oeste 0 -- -- 39
2019-10-11 15:00:00 25 13 Norte 39 Norte 0 -- -- 38
2019-10-11 14:00:00 23.2 12 Oeste 31 Noroeste 0 -- -- 43
2019-10-11 13:00:00 21.9 11 Noroeste 27 Noroeste 0 -- -- 43
2019-10-11 12:00:00 18 4 Sudoeste 11 Oeste 0 -- -- 58
2019-10-11 11:00:00 13.3 3 Noroeste 6 Norte 0 -- -- 76
2019-10-11 10:00:00 7.8 0 Calma 13 Este 0 -- -- 86
2019-10-11 09:00:00 4.5 11 Este 15 Este 0 -- -- 93
2019-10-11 08:00:00 3.8 2 Este 13 Este 0 -- -- 92
2019-10-11 07:00:00 3.3 6 Este 13 Este 0 -- -- 96
2019-10-11 06:00:00 3.4 5 Este 11 Este 0 -- -- 95
2019-10-11 05:00:00 3.1 0 Calma 0 Calma 0 -- -- 92
2019-10-11 04:00:00 4 0 Calma 13 Este 0 -- -- 90
2019-10-11 03:00:00 4.9 6 Este 11 Este 0 -- -- 93
2019-10-11 02:00:00 5.3 10 Este 15 Este 0 -- -- 91
2019-10-11 01:00:00 6.3 0 Calma 11 Este 0 -- -- 86
2019-10-11 00:00:00 7.9 6 Este 21 Este 0 -- -- 84
2019-10-10 23:00:00 9.4 8 Este 12 Este 0 -- -- 81
2019-10-10 22:00:00 10 0 Calma 9 Este 0 -- -- 77
2019-10-10 21:00:00 12.2 0 Calma 4 Noroeste 0 -- -- 70
2019-10-10 20:00:00 15.4 0 Calma 10 Sudeste 0 -- -- 60
2019-10-10 19:00:00 19.1 6 Sur 13 Sur 0 -- -- 45
2019-10-10 18:00:00 20.8 3 Oeste 9 Oeste 0 -- -- 36
2019-10-10 17:00:00 20.4 5 Sudoeste 12 Sudoeste 0 -- -- 37
2019-10-10 16:00:00 19.6 4 Oeste 14 Sur 0 -- -- 41
2019-10-10 15:00:00 18.4 5 Oeste 14 Oeste 0 -- -- 46
2019-10-10 14:00:00 16.5 6 Oeste 18 Sur 0 -- -- 53
2019-10-10 13:00:00 14.4 10 Sur 20 Sur 0 -- -- 64
2019-10-10 12:00:00 12.5 8 Sur 15 Sur 0 -- -- 72
2019-10-10 11:00:00 9.3 3 Oeste 7 Sudoeste 0 -- -- 86
2019-10-10 10:00:00 5.5 5 Este 12 Este 0 -- -- 99
2019-10-10 09:00:00 4 6 Sudeste 11 Este 0 -- -- 98
2019-10-10 08:00:00 4 5 Este 12 Este 0 -- -- 98
2019-10-10 07:00:00 3.5 12 Este 14 Este 0 -- -- 96
2019-10-10 06:00:00 4.4 7 Este 12 Este 0 -- -- 94
2019-10-10 05:00:00 5.4 8 Este 14 Este 0 -- -- 92
2019-10-10 04:00:00 8.9 4 Sudeste 9 Sudeste 0 -- -- 90
2019-10-10 03:00:00 9 5 Sudeste 9 Este 0 -- -- 91
2019-10-10 02:00:00 8.8 5 Sudeste 12 Sur 0 -- -- 91
2019-10-10 01:00:00 9.5 6 Sur 13 Sudoeste 0 -- -- 87
2019-10-10 00:00:00 9.6 6 Sur 17 Sudeste 0 -- -- 89
2019-10-09 23:00:00 9.4 8 Sur 18 Sudeste 0 -- -- 90
2019-10-09 22:00:00 9.8 9 Sur 30 Sudeste 0 -- -- 89
2019-10-09 21:00:00 10.1 12 Sudeste 24 Sudeste 0 -- -- 88
2019-10-09 20:00:00 10.6 13 Sur 32 Sudeste 0 -- -- 80
2019-10-09 19:00:00 11.9 17 Sur 35 Sur 0 -- -- 72
2019-10-09 18:00:00 13.9 18 Sur 34 Sur 0 -- -- 69
2019-10-09 17:00:00 15.6 15 Sudeste 34 Sur 0 -- -- 64
2019-10-09 16:00:00 16.5 17 Sur 32 Sudeste 0 -- -- 60
2019-10-09 15:00:00 17.2 11 Sur 26 Sudeste 0 -- -- 54
2019-10-09 14:00:00 16.6 7 Sur 18 Sudoeste 0 -- -- 56
2019-10-09 13:00:00 15.5 10 Sudeste 30 Sur 0 -- -- 62
2019-10-09 12:00:00 14.2 11 Sur 18 Sur 0 -- -- 68
2019-10-09 11:00:00 11.7 6 Sur 19 Sur 0 -- -- 82
2019-10-09 10:00:00 10.9 10 Sudeste 22 Sudeste 0 -- -- 85
2019-10-09 09:00:00 10.3 9 Sur 16 Sur 0 -- -- 90
2019-10-09 08:00:00 9.8 7 Sur 23 Sudeste 0 -- -- 90
2019-10-09 07:00:00 10.4 12 Sur 22 Sudeste 0 -- -- 88
2019-10-09 06:00:00 10.6 11 Sur 21 Sur 0 -- -- 88
2019-10-09 05:00:00 11.1 13 Sur 28 Sudeste 0 -- -- 90
2019-10-09 04:00:00 11.8 10 Sur 19 Sudeste 0 -- -- 88
2019-10-09 03:00:00 11.9 7 Sur 21 Sur 0 -- -- 90
2019-10-09 02:00:00 11.7 11 Sudeste 25 Sudeste 0 -- -- 91
2019-10-09 01:00:00 12.3 12 Sur 27 Sur 0 -- -- 90
2019-10-09 00:00:00 12.4 11 Sur 21 Sur 0 -- -- 90
2019-10-08 23:00:00 11.8 10 Sur 26 Sudeste 0 -- -- 93
2019-10-08 22:00:00 12.3 12 Sur 26 Sudeste 0 -- -- 92
2019-10-08 21:00:00 13.1 14 Sur 27 Sudeste 0 -- -- 91
2019-10-08 20:00:00 14.1 12 Sur 32 Sur 0 -- -- 89
2019-10-08 19:00:00 16.4 16 Sur 37 Sudeste 0 -- -- 80
2019-10-08 18:00:00 18.6 23 Sur 39 Sur 0 -- -- 77
2019-10-08 17:00:00 23.7 17 Sur 36 Sudeste 0 -- -- 57
2019-10-08 16:00:00 27 7 Oeste 25 Oeste 0 -- -- 37
2019-10-08 15:00:00 26.3 11 Noroeste 23 Noroeste 0 -- -- 38
2019-10-08 14:00:00 24.3 10 Oeste 23 Noroeste 0 -- -- 40
2019-10-08 13:00:00 23.1 8 Noroeste 18 Noroeste 0 -- -- 41
2019-10-08 12:00:00 19.1 7 Oeste 11 Oeste 0 -- -- 49
2019-10-08 11:00:00 14.8 4 Oeste 9 Noroeste 0 -- -- 58
2019-10-08 10:00:00 10.7 2 Sudeste 9 Este 0 -- -- 84
2019-10-08 09:00:00 6.9 8 Este 13 Este 0 -- -- 95
2019-10-08 08:00:00 5 0 Calma 12 Este 0 -- -- 94
2019-10-08 07:00:00 5 0 Calma 13 Este 0 -- -- 93
2019-10-08 06:00:00 5.4 0 Calma 6 Este 0 -- -- 93
2019-10-08 05:00:00 6.1 0 Calma 8 Este 0 -- -- 92
2019-10-08 04:00:00 7 6 Este 14 Este 0 -- -- 93
2019-10-08 03:00:00 7.3 0 Calma 11 Este 0 -- -- 89
2019-10-08 02:00:00 8.3 7 Este 12 Este 0 -- -- 90
2019-10-08 01:00:00 8.8 0 Calma 9 Este 0 -- -- 85
2019-10-08 00:00:00 10.3 5 Este 10 Este 0 -- -- 84
2019-10-07 23:00:00 11.4 4 Este 11 Este 0 -- -- 81
2019-10-07 22:00:00 13 5 Este 8 Este 0 -- -- 74
2019-10-07 21:00:00 15 0 Calma 12 Sudeste 0 -- -- 67
2019-10-07 20:00:00 17.7 6 Sudeste 25 Sur 0 -- -- 60
2019-10-07 19:00:00 20.6 10 Sudeste 24 Sudeste 0 -- -- 50
2019-10-07 18:00:00 22.6 12 Sudeste 22 Sudeste 0 -- -- 44
2019-10-07 17:00:00 23.9 6 Sudoeste 12 Sudoeste 0 -- -- 39
2019-10-07 16:00:00 23.6 4 Norte 14 Sudoeste 0 -- -- 41
2019-10-07 15:00:00 22.1 5 Sudeste 13 Sur 0 -- -- 44
2019-10-07 14:00:00 20.9 7 Sudoeste 12 Sudoeste 0 -- -- 45
2019-10-07 13:00:00 18.4 4 Sudoeste 10 Sur 0 -- -- 48
2019-10-07 12:00:00 15.6 4 Sudoeste 9 Sudoeste 0 -- -- 66
2019-10-07 11:00:00 12.7 4 Sur 7 Sur 0 -- -- 75
2019-10-07 10:00:00 10.4 3 Este 6 Noroeste 0 -- -- 85
2019-10-07 09:00:00 8.1 4 Sudeste 8 Este 0 -- -- 94
2019-10-07 08:00:00 8.4 4 Este 9 Este 0 -- -- 94
2019-10-07 07:00:00 9.2 5 Este 8 Este 0 -- -- 93
2019-10-07 06:00:00 10.2 2 Sudeste 7 Este 0 -- -- 92
2019-10-07 05:00:00 10.6 3 Este 7 Este 0 -- -- 90
2019-10-07 04:00:00 10.8 4 Sudeste 9 Sudeste 0 -- -- 91
2019-10-07 03:00:00 11 4 Sudeste 10 Sur 0 -- -- 90
2019-10-07 02:00:00 11.3 6 Sur 13 Sur 0 -- -- 90
2019-10-07 01:00:00 11.4 7 Sur 18 Sur 0 -- -- 90
2019-10-07 00:00:00 11.4 7 Sur 22 Sudeste 0 -- -- 92
2019-10-06 23:00:00 11.3 10 Sur 22 Sur 0 -- -- 94
2019-10-06 22:00:00 11.5 10 Sur 28 Sur 0 -- -- 93
2019-10-06 21:00:00 12.1 12 Sur 25 Sudeste 0 -- -- 92
2019-10-06 20:00:00 13 14 Sur 29 Sur 0 -- -- 88
2019-10-06 19:00:00 14.8 14 Sur 32 Sur 0 -- -- 80
2019-10-06 18:00:00 16.4 20 Sur 35 Sudeste 0 -- -- 73
2019-10-06 17:00:00 18.5 14 Sudeste 27 Sudeste 0 -- -- 67
2019-10-06 16:00:00 19 12 Sur 23 Sudeste 0 -- -- 65
2019-10-06 15:00:00 18.9 6 Sudeste 18 Sudoeste 0 -- -- 60
2019-10-06 14:00:00 17.9 4 Sudeste 12 Sur 0 -- -- 64
2019-10-06 13:00:00 16.5 7 Sudoeste 12 Sudoeste 0 -- -- 73
2019-10-06 12:00:00 13.9 2 Noroeste 7 Sur 0 -- -- 81
2019-10-06 11:00:00 12.5 4 Oeste 7 Oeste 0 -- -- 88
2019-10-06 10:00:00 11.4 2 Oeste 12 Sur 0 -- -- 93
2019-10-06 09:00:00 10.4 5 Sudeste 10 Sur 0 -- -- 96
2019-10-06 08:00:00 10.3 0 Calma 6 Nordeste 0 -- -- 95
2019-10-06 07:00:00 10.6 3 Este 6 Este 0 -- -- 93
2019-10-06 06:00:00 11.1 0 Calma 8 Nordeste 0 -- -- 92
2019-10-06 05:00:00 11.2 4 Este 11 Sudeste 0 -- -- 93
2019-10-06 04:00:00 11.7 6 Sudeste 14 Sudoeste 0 -- -- 91
2019-10-06 03:00:00 11.5 6 Sur 14 Sudeste 0 -- -- 92
2019-10-06 02:00:00 11.3 6 Sur 15 Sur 0 -- -- 93
2019-10-06 01:00:00 11.6 5 Sudeste 19 Sur 0 -- -- 94
2019-10-06 00:00:00 11.9 7 Sur 14 Sur 0 -- -- 94
2019-10-05 23:00:00 11.9 8 Sudeste 20 Sudeste 0 -- -- 93
2019-10-05 22:00:00 12.3 11 Sur 21 Sur 0 -- -- 93
2019-10-05 21:00:00 12.8 11 Sur 33 Sudeste 0 -- -- 92
2019-10-05 20:00:00 14.2 18 Sur 34 Sur 0 -- -- 86
2019-10-05 19:00:00 18.3 18 Sudeste 30 Sudeste 0 -- -- 71
2019-10-05 18:00:00 23.9 7 Noroeste 21 Sudoeste 0 -- -- 44
2019-10-05 17:00:00 23.5 12 Oeste 23 Oeste 0 -- -- 48
2019-10-05 16:00:00 23.1 9 Sudoeste 19 Oeste 0 -- -- 54
2019-10-05 15:00:00 22.2 7 Oeste 15 Sudoeste 0 -- -- 56
2019-10-05 14:00:00 20 4 Sur 12 Sudeste 0 -- -- 67
2019-10-05 13:00:00 16.3 4 Sur 10 Sur 0 -- -- 79
2019-10-05 12:00:00 12.6 4 Sudeste 7 Sur 0 -- -- 91
2019-10-05 11:00:00 11 3 Oeste 8 Sudoeste 0 -- -- 97
2019-10-05 10:00:00 10.3 3 Sudeste 8 Sudeste 0 -- -- 98
2019-10-05 09:00:00 10.3 4 Sudeste 8 Sudeste 0 -- -- 97
2019-10-05 08:00:00 10.8 4 Este 7 Sudeste 0 -- -- 96
2019-10-05 07:00:00 11.1 3 Sudeste 8 Este 0 -- -- 94
2019-10-05 06:00:00 11.4 4 Este 7 Este 0 -- -- 93
2019-10-05 05:00:00 11.5 5 Este 13 Este 0 -- -- 93
2019-10-05 04:00:00 11.8 5 Este 11 Este 0 -- -- 92
2019-10-05 03:00:00 12 8 Sudeste 14 Sudeste 0 -- -- 91
2019-10-05 02:00:00 12 5 Sudeste 12 Sudeste 0 -- -- 93
2019-10-05 01:00:00 11.8 5 Sudeste 18 Sur 0 -- -- 94
2019-10-05 00:00:00 11.8 8 Sudeste 20 Sudeste 0 -- -- 94
2019-10-04 23:00:00 12.2 9 Sur 21 Sudeste 0 -- -- 93
2019-10-04 22:00:00 12.1 12 Sur 26 Sur 0 -- -- 95
2019-10-04 21:00:00 12.3 10 Sudeste 21 Sudeste 0 -- -- 92
2019-10-04 20:00:00 13.7 9 Sur 27 Sudeste 0 -- -- 87
2019-10-04 19:00:00 15.8 15 Sur 33 Sudeste 0 -- -- 79
2019-10-04 18:00:00 17.5 17 Sur 35 Sudeste 0 -- -- 74
2019-10-04 17:00:00 18.7 14 Sur 28 Sudeste 0 -- -- 70
2019-10-04 16:00:00 21.2 5 Sudoeste 18 Sur 0 -- -- 57
2019-10-04 15:00:00 20.7 4 Sur 14 Sudoeste 0 -- -- 60
2019-10-04 14:00:00 19.3 6 Sudoeste 16 Sur 0 -- -- 64
2019-10-04 13:00:00 18 10 Sur 20 Sudoeste 0 -- -- 70
2019-10-04 12:00:00 16.1 12 Sur 21 Sur 0 -- -- 81
2019-10-04 11:00:00 12.3 3 Sudoeste 6 Sudoeste 0 -- -- 87
2019-10-04 10:00:00 8.3 5 Este 9 Este 0 -- -- 94
2019-10-04 09:00:00 5.3 5 Este 12 Este 0 -- -- 98
2019-10-04 08:00:00 4.2 0 Calma 19 Este 0 -- -- 95
2019-10-04 07:00:00 4.7 0 Calma 12 Este 0 -- -- 96
2019-10-04 06:00:00 5.3 3 Nordeste 9 Este 0 -- -- 96
2019-10-04 05:00:00 5.7 3 Este 10 Este 0 -- -- 95
2019-10-04 04:00:00 6.9 8 Este 12 Este 0 -- -- 96
2019-10-04 03:00:00 7 4 Este 12 Este 0 -- -- 94
2019-10-04 02:00:00 7.9 11 Este 15 Este 0 -- -- 93
2019-10-04 01:00:00 9.1 0 Calma 12 Este 0 -- -- 91
2019-10-04 00:00:00 10.1 5 Este 9 Este 0 -- -- 90
2019-10-03 23:00:00 11.6 2 Este 6 Este 0 -- -- 86
2019-10-03 22:00:00 13.4 4 Sur 17 Sur 0 -- -- 82
2019-10-03 21:00:00 14.4 10 Sur 25 Sudeste 0 -- -- 78
2019-10-03 20:00:00 16.5 11 Sudeste 26 Sudeste 0 -- -- 71
2019-10-03 19:00:00 20.4 11 Sudeste 24 Sur 0 -- -- 57
2019-10-03 18:00:00 23 6 Sudoeste 12 Sudoeste 0 -- -- 45
2019-10-03 17:00:00 23 3 Sur 14 Sudoeste 0 -- -- 44
2019-10-03 16:00:00 22 9 Sur 21 Sur 0 -- -- 48
2019-10-03 15:00:00 21.2 5 Sudoeste 11 Noroeste 0 -- -- 50
2019-10-03 14:00:00 19.6 6 Noroeste 13 Norte 0 -- -- 56
2019-10-03 13:00:00 16.6 6 Norte 13 Noroeste 0 -- -- 68
2019-10-03 12:00:00 13.6 6 Norte 13 Norte 0 -- -- 78
2019-10-03 11:00:00 10.9 4 Nordeste 11 Noroeste 0 -- -- 90
2019-10-03 10:00:00 9.4 3 Norte 12 Noroeste 0 -- -- 95
2019-10-03 09:00:00 9.2 4 Norte 10 Noroeste 0 -- -- 95
2019-10-03 08:00:00 9.6 6 Norte 12 Norte 0 -- -- 94
2019-10-03 07:00:00 10.6 0 Calma 2 Nordeste 0 -- -- 92
2019-10-03 06:00:00 10.6 0 Calma 0 Calma 0 -- -- 93
2019-10-03 05:00:00 10.7 0 Calma 0 Calma 0 -- -- 92
2019-10-03 04:00:00 11.3 0 Calma 3 Este 0 -- -- 91
2019-10-03 03:00:00 11.3 0 Calma 8 Sudeste 0 -- -- 91
2019-10-03 02:00:00 11.3 5 Sur 12 Sur 0 -- -- 91
2019-10-03 01:00:00 11.3 5 Sur 10 Sur 0 -- -- 92
2019-10-03 00:00:00 10.8 4 Sudeste 12 Sur 0 -- -- 95
2019-10-02 23:00:00 10.3 4 Sudeste 13 Sudeste 0 -- -- 94
2019-10-02 22:00:00 10.9 5 Sudeste 17 Sudeste 0 -- -- 92
2019-10-02 21:00:00 11.5 9 Sur 26 Sur 0 -- -- 89
2019-10-02 20:00:00 12.6 13 Sur 28 Sudeste 0 -- -- 84
2019-10-02 19:00:00 14.8 12 Sur 23 Sur 0 -- -- 75
2019-10-02 18:00:00 17.1 13 Sur 28 Sudeste 0 -- -- 62
2019-10-02 17:00:00 17.7 12 Sur 23 Sur 0 -- -- 60
2019-10-02 16:00:00 17.4 13 Sudeste 27 Sudeste 0 -- -- 61
2019-10-02 15:00:00 16.8 8 Sudoeste 21 Sur 0 -- -- 60
2019-10-02 14:00:00 16 8 Sur 15 Sur 0 -- -- 62
2019-10-02 13:00:00 15 5 Sur 14 Sur 0 -- -- 67
2019-10-02 12:00:00 13.4 6 Sudoeste 12 Sur 0 -- -- 78
2019-10-02 11:00:00 10.6 0 Calma 10 Nordeste 0 -- -- 90
2019-10-02 10:00:00 9.2 4 Nordeste 11 Sudeste 0 -- -- 90
2019-10-02 09:00:00 8.6 3 Este 6 Norte 0 -- -- 97
2019-10-02 08:00:00 8.3 3 Nordeste 9 Este 0 -- -- 97
2019-10-02 07:00:00 8.3 2 Nordeste 9 Norte 0 -- -- 96
2019-10-02 06:00:00 9.2 3 Este 8 Norte 0 -- -- 95
2019-10-02 05:00:00 9.9 2 Sudeste 10 Sudeste 0 -- -- 94
2019-10-02 04:00:00 10.5 0 Calma 8 Este 0 -- -- 96
2019-10-02 03:00:00 10.2 0 Calma 5 Sudeste 0 -- -- 96
2019-10-02 02:00:00 10.5 5 Sudeste 12 Sudeste 0 -- -- 95
2019-10-02 01:00:00 10.9 3 Este 13 Este 0 -- -- 96
2019-10-02 00:00:00 11.6 4 Sudeste 12 Sudeste 0 -- -- 93
2019-10-01 23:00:00 12.3 6 Sur 17 Sur 0 -- -- 93
2019-10-01 22:00:00 12.5 8 Sur 16 Sudeste 0 -- -- 93
2019-10-01 21:00:00 12.8 9 Sudeste 24 Sur 0 -- -- 91
2019-10-01 20:00:00 13.7 12 Sur 31 Sur 0 -- -- 89
2019-10-01 19:00:00 15.2 18 Sur 37 Sudeste 0 -- -- 86
2019-10-01 18:00:00 18.6 20 Sur 32 Sudeste 0 -- -- 73
2019-10-01 17:00:00 20 16 Sur 33 Sudeste 0 -- -- 67
2019-10-01 16:00:00 23.3 12 Noroeste 26 Noroeste 0 -- -- 47
2019-10-01 15:00:00 22.6 9 Noroeste 21 Noroeste 0 -- -- 48
2019-10-01 14:00:00 21 6 Norte 18 Norte 0 -- -- 53
2019-10-01 13:00:00 19.2 4 Este 11 Sur 0 -- -- 61
2019-10-01 12:00:00 17.6 4 Sudoeste 12 Sudoeste 0 -- -- 71
2019-10-01 11:00:00 14.9 4 Sur 8 Sur 0 -- -- 84
2019-10-01 10:00:00 10.9 0 Calma 10 Sudeste 0 -- -- 94
2019-10-01 09:00:00 8.5 0 Calma 8 Este 0 -- -- 98
2019-10-01 08:00:00 7.9 2 Este 11 Este 0 -- -- 96
2019-10-01 07:00:00 8.4 0 Calma 10 Este 0 -- -- 96
2019-10-01 06:00:00 8.2 3 Norte 7 Norte 0 -- -- 95
2019-10-01 05:00:00 8.7 2 Sudeste 7 Este 0 -- -- 93
2019-10-01 04:00:00 9.4 0 Calma 10 Este 0 -- -- 93
2019-10-01 03:00:00 9.7 0 Calma 4 Norte 0 -- -- 92
2019-10-01 02:00:00 11 4 Este 13 Este 0 -- -- 89
2019-10-01 01:00:00 11.9 2 Este 10 Este 0 -- -- 89
2019-10-01 00:00:00 13 2 Este 6 Este 0 -- -- 86
2019-09-30 23:00:00 14.9 3 Este 9 Este 0 -- -- 80
2019-09-30 22:00:00 15.8 0 Calma 9 Este 0 -- -- 77
2019-09-30 21:00:00 17.7 0 Calma 8 Norte 0 -- -- 72
2019-09-30 20:00:00 21.2 0 Calma 19 Norte 0 -- -- 60
2019-09-30 19:00:00 23.4 9 Noroeste 24 Norte 0 -- -- 52
2019-09-30 18:00:00 24.6 12 Noroeste 30 Norte 0 -- -- 51
2019-09-30 17:00:00 25 12 Noroeste 22 Norte 0 -- -- 51
2019-09-30 16:00:00 24.3 10 Noroeste 25 Oeste 0 -- -- 52
2019-09-30 15:00:00 23 11 Noroeste 23 Noroeste 0 -- -- 54
2019-09-30 14:00:00 21.5 4 Oeste 15 Oeste 0 -- -- 56
2019-09-30 13:00:00 19.5 6 Sudoeste 10 Sudoeste 0 -- -- 65
2019-09-30 12:00:00 16.3 3 Sur 8 Oeste 0 -- -- 76
2019-09-30 11:00:00 13 3 Sudoeste 6 Sudoeste 0 -- -- 85
2019-09-30 10:00:00 9.5 2 Sudoeste 10 Este 0 -- -- 96
2019-09-30 09:00:00 5.6 0 Calma 9 Este 0 -- -- 97
2019-09-30 08:00:00 5.7 8 Este 12 Este 0 -- -- 96
2019-09-30 07:00:00 6.2 4 Este 8 Este 0 -- -- 95
2019-09-30 06:00:00 7.5 6 Este 12 Este 0 -- -- 96
2019-09-30 05:00:00 8.1 8 Este 12 Este 0 -- -- 95
2019-09-30 04:00:00 9 5 Este 12 Este 0 -- -- 96
2019-09-30 03:00:00 9.4 8 Este 13 Este 0 -- -- 95
2019-09-30 02:00:00 11.3 2 Nordeste 7 Sudeste 0 -- -- 92
2019-09-30 01:00:00 12.9 3 Sudeste 12 Sur 0 -- -- 90
2019-09-30 00:00:00 13.7 5 Sur 18 Sur 0 -- -- 88
2019-09-29 23:00:00 14.5 8 Sur 18 Sur 0 -- -- 84
2019-09-29 22:00:00 16 8 Sur 21 Sur 0 -- -- 74
2019-09-29 21:00:00 17.9 6 Sudoeste 15 Este 0 -- -- 60
2019-09-29 20:00:00 22.5 3 Noroeste 23 Norte 0 -- -- 47
2019-09-29 19:00:00 23.9 12 Norte 25 Noroeste 0 -- -- 45
2019-09-29 18:00:00 25.4 9 Noroeste 28 Noroeste 0 -- -- 41
2019-09-29 17:00:00 25.5 13 Norte 39 Noroeste 0 -- -- 40
2019-09-29 16:00:00 25.5 11 Noroeste 41 Norte 0 -- -- 39
2019-09-29 15:00:00 25 10 Noroeste 34 Noroeste 0 -- -- 36
2019-09-29 14:00:00 23.9 14 Noroeste 39 Oeste 0 -- -- 35
2019-09-29 13:00:00 22.7 16 Noroeste 36 Noroeste 0 -- -- 40
2019-09-29 12:00:00 20.2 12 Noroeste 23 Noroeste 0 -- -- 44
2019-09-29 11:00:00 14.9 3 Sudoeste 12 Noroeste 0 -- -- 64
2019-09-29 10:00:00 9.2 4 Sudeste 12 Este 0 -- -- 84
2019-09-29 09:00:00 4.3 5 Este 17 Este 0 -- -- 93
2019-09-29 08:00:00 4.3 2 Nordeste 14 Este 0 -- -- 93
2019-09-29 07:00:00 4.7 10 Este 18 Este 0 -- -- 92
2019-09-29 06:00:00 4.4 2 Este 15 Este 0 -- -- 91
2019-09-29 05:00:00 6 10 Este 18 Este 0 -- -- 89
2019-09-29 04:00:00 5.7 3 Este 13 Este 0 -- -- 89
2019-09-29 03:00:00 6.7 3 Este 11 Este 0 -- -- 88
2019-09-29 02:00:00 7.4 0 Calma 12 Este 0 -- -- 84
2019-09-29 01:00:00 8.6 3 Este 9 Este 0 -- -- 80
2019-09-29 00:00:00 10.6 10 Este 14 Este 0 -- -- 73
2019-09-28 23:00:00 11.7 0 Calma 12 Este 0 -- -- 72
2019-09-28 22:00:00 15.2 4 Este 15 Norte 0 -- -- 57
2019-09-28 21:00:00 17.9 9 Noroeste 18 Noroeste 0 -- -- 48
2019-09-28 20:00:00 20.2 6 Noroeste 21 Norte 0 -- -- 44
2019-09-28 19:00:00 22.6 10 Noroeste 24 Noroeste 0 -- -- 35
2019-09-28 18:00:00 23.9 10 Noroeste 25 Oeste 0 -- -- 34
2019-09-28 17:00:00 23.8 12 Oeste 25 Oeste 0 -- -- 35
2019-09-28 16:00:00 22.8 13 Noroeste 27 Oeste 0 -- -- 38
2019-09-28 15:00:00 21.9 10 Noroeste 30 Oeste 0 -- -- 43
2019-09-28 14:00:00 20 9 Noroeste 21 Noroeste 0 -- -- 59
2019-09-28 13:00:00 18.4 9 Noroeste 17 Norte 0 -- -- 60
2019-09-28 12:00:00 16.3 8 Noroeste 17 Noroeste 0 -- -- 69
2019-09-28 11:00:00 13.4 5 Noroeste 10 Noroeste 0 -- -- 83
2019-09-28 10:00:00 13 0 Calma 6 Este 0 -- -- 90
2019-09-28 09:00:00 11.5 0 Calma 4 Este 0 -- -- 94
2019-09-28 08:00:00 11.5 0 Calma 4 Sudeste 0 -- -- 92
2019-09-28 07:00:00 11.9 2 Sur 5 Este 0 -- -- 90
2019-09-28 06:00:00 12.2 2 Este 7 Sudeste 0 -- -- 90
2019-09-28 05:00:00 12.2 4 Sudeste 9 Sudeste 0 -- -- 91
2019-09-28 04:00:00 12 5 Sur 10 Sur 0 -- -- 92
2019-09-28 03:00:00 11.9 6 Sur 10 Sur 0 -- -- 92
2019-09-28 02:00:00 11.8 5 Sur 15 Sur 0 -- -- 93
2019-09-28 01:00:00 11.5 5 Sur 15 Sudeste 0 -- -- 93
2019-09-28 00:00:00 11.5 8 Sur 22 Sudeste 0 -- -- 93
2019-09-27 23:00:00 11.8 11 Sur 23 Sudeste 0 -- -- 93
2019-09-27 22:00:00 12.8 13 Sur 26 Sur 0 -- -- 91
2019-09-27 21:00:00 13.4 14 Sudeste 32 Sudeste 0 -- -- 93
2019-09-27 20:00:00 14.7 15 Sur 31 Sudeste 0 -- -- 89
2019-09-27 19:00:00 17.8 20 Sur 32 Norte 0 -- -- 76
2019-09-27 18:00:00 22.1 12 Noroeste 30 Norte 0 -- -- 51
2019-09-27 17:00:00 23.5 10 Noroeste 23 Noroeste 0 -- -- 47
2019-09-27 16:00:00 23 10 Noroeste 20 Noroeste 0 -- -- 47
2019-09-27 15:00:00 21.6 7 Noroeste 18 Oeste 0 -- -- 49
2019-09-27 14:00:00 19.6 9 Oeste 21 Oeste 0 -- -- 49
2019-09-27 13:00:00 17.8 5 Oeste 12 Sudoeste 0 -- -- 54
2019-09-27 12:00:00 15.6 5 Sudoeste 10 Oeste 0 -- -- 70
2019-09-27 11:00:00 12.7 3 Sudoeste 5 Sudoeste 0 -- -- 83
2019-09-27 10:00:00 9 0 Calma 13 Sudeste 0 -- -- 91
2019-09-27 09:00:00 4.9 2 Este 14 Este 0 -- -- 94
2019-09-27 08:00:00 4.9 7 Este 16 Este 0 -- -- 95
2019-09-27 07:00:00 5 4 Este 17 Este 0 -- -- 95
2019-09-27 06:00:00 5.2 8 Este 16 Este 0 -- -- 95
2019-09-27 05:00:00 5.2 6 Este 18 Este 0 -- -- 93
2019-09-27 04:00:00 5.5 0 Calma 10 Este 0 -- -- 91
2019-09-27 03:00:00 6.3 3 Este 14 Este 0 -- -- 92
2019-09-27 02:00:00 7.1 0 Calma 8 Este 0 -- -- 88
2019-09-27 01:00:00 8.5 2 Nordeste 12 Este 0 -- -- 85
2019-09-27 00:00:00 9.9 4 Nordeste 12 Este 0 -- -- 83
2019-09-26 23:00:00 11 0 Calma 13 Este 0 -- -- 79
2019-09-26 22:00:00 13.1 0 Calma 11 Este 0 -- -- 69
2019-09-26 21:00:00 15.3 0 Calma 4 Noroeste 0 -- -- 65
2019-09-26 20:00:00 20 0 Calma 13 Noroeste 0 -- -- 49
2019-09-26 19:00:00 22.7 8 Noroeste 26 Noroeste 0 -- -- 37
2019-09-26 18:00:00 23.9 10 Noroeste 28 Oeste 0 -- -- 34
2019-09-26 17:00:00 24 12 Noroeste 28 Oeste 0 -- -- 33
2019-09-26 16:00:00 23.2 15 Noroeste 30 Noroeste 0 -- -- 37
2019-09-26 15:00:00 22.5 11 Noroeste 29 Noroeste 0 -- -- 40
2019-09-26 14:00:00 21.2 12 Noroeste 26 Noroeste 0 -- -- 50
2019-09-26 13:00:00 19.2 13 Noroeste 27 Noroeste 0 -- -- 58
2019-09-26 12:00:00 17 13 Norte 26 Norte 0 -- -- 64
2019-09-26 11:00:00 14.6 5 Oeste 11 Noroeste 0 -- -- 78
2019-09-26 10:00:00 11.8 3 Noroeste 9 Noroeste 0 -- -- 90
2019-09-26 09:00:00 7.7 3 Este 12 Este 0 -- -- 98
2019-09-26 08:00:00 6.9 8 Este 14 Este 0 -- -- 97
2019-09-26 07:00:00 6.6 0 Calma 8 Este 0 -- -- 96
2019-09-26 06:00:00 6.8 0 Calma 6 Sudeste 0 -- -- 96
2019-09-26 05:00:00 7.4 3 Nordeste 8 Este 0 -- -- 96
2019-09-26 04:00:00 7.8 0 Calma 9 Este 0 -- -- 95
2019-09-26 03:00:00 8.3 9 Este 13 Este 0 -- -- 95
2019-09-26 02:00:00 9 0 Calma 9 Este 0 -- -- 93
2019-09-26 01:00:00 9.5 0 Calma 13 Este 0 -- -- 90
2019-09-26 00:00:00 10.4 0 Calma 10 Este 0 -- -- 87
2019-09-25 23:00:00 11.5 0 Calma 8 Este 0 -- -- 87
2019-09-25 22:00:00 13.1 0 Calma 14 Este 0 -- -- 81
2019-09-25 21:00:00 14.5 0 Calma 7 Noroeste 0 -- -- 78
2019-09-25 20:00:00 17.4 0 Calma 13 Noroeste 0 -- -- 63
2019-09-25 19:00:00 18.5 6 Noroeste 17 Oeste 0 -- -- 57
2019-09-25 18:00:00 19 10 Oeste 20 Norte 0 -- -- 56
2019-09-25 17:00:00 19.8 12 Noroeste 23 Noroeste 0 -- -- 53
2019-09-25 16:00:00 18.5 9 Oeste 17 Oeste 0 -- -- 59
2019-09-25 15:00:00 18 6 Oeste 15 Norte 0 -- -- 60
2019-09-25 14:00:00 17.2 8 Oeste 27 Noroeste 0 -- -- 61
2019-09-25 13:00:00 15.4 10 Oeste 19 Oeste 0 -- -- 71
2019-09-25 12:00:00 14.3 8 Noroeste 18 Oeste 0 -- -- 78
2019-09-25 11:00:00 12.6 4 Noroeste 9 Norte 0 -- -- 85
2019-09-25 10:00:00 11.3 3 Sudoeste 5 Sudoeste 0 -- -- 95
2019-09-25 09:00:00 10 0 Calma 4 Este 0 -- -- 96
2019-09-25 08:00:00 9.9 0 Calma 4 Sudeste 0 -- -- 95
2019-09-25 07:00:00 10.3 0 Calma 5 Este 0 -- -- 94
2019-09-25 06:00:00 10.9 0 Calma 7 Sur 0 -- -- 94
2019-09-25 05:00:00 11.1 6 Sudeste 14 Sudeste 0 -- -- 94
2019-09-25 04:00:00 11.3 8 Sur 13 Este 0 -- -- 93
2019-09-25 03:00:00 11.1 6 Sudeste 14 Sur 0 -- -- 94
2019-09-25 02:00:00 10.2 5 Sudeste 10 Sudeste 0 -- -- 95
2019-09-25 01:00:00 10.7 5 Sudeste 15 Sur 0 -- -- 93
2019-09-25 00:00:00 11.5 7 Sur 21 Sur 0 -- -- 92
2019-09-24 23:00:00 11.9 8 Sur 18 Sudoeste 0 -- -- 90
2019-09-24 22:00:00 12.6 13 Sudeste 28 Sudeste 0 -- -- 89
2019-09-24 21:00:00 13.5 10 Sudoeste 33 Sudeste 0 -- -- 89
2019-09-24 20:00:00 16 10 Sur 24 Norte 0 -- -- 78
2019-09-24 19:00:00 20.5 8 Noroeste 28 Norte 0 -- -- 60
2019-09-24 18:00:00 21.8 12 Norte 29 Norte 0 -- -- 59
2019-09-24 17:00:00 20.3 12 Norte 24 Norte 0 -- -- 64
2019-09-24 16:00:00 19.3 5 Norte 19 Noroeste 0 -- -- 74
2019-09-24 15:00:00 16.8 10 Norte 25 Noroeste 0 -- -- 84
2019-09-24 14:00:00 15.8 11 Noroeste 28 Noroeste 0 -- -- 82
2019-09-24 13:00:00 15.7 16 Noroeste 32 Noroeste 0 -- -- 82
2019-09-24 12:00:00 15.2 17 Noroeste 31 Noroeste 0 -- -- 82
2019-09-24 11:00:00 14 13 Noroeste 29 Noroeste 0 -- -- 86
2019-09-24 10:00:00 12.3 8 Oeste 20 Oeste 0 -- -- 92
2019-09-24 09:00:00 11.7 4 Oeste 18 Noroeste 0 -- -- 91
2019-09-24 08:00:00 11.4 8 Noroeste 13 Oeste 0 -- -- 91
2019-09-24 07:00:00 11.1 5 Sudoeste 10 Sudoeste 0 -- -- 91
2019-09-24 06:00:00 11.2 5 Sudoeste 10 Sudoeste 0 -- -- 89
2019-09-24 05:00:00 11.8 2 Sudoeste 10 Oeste 0 -- -- 86
2019-09-24 04:00:00 12.6 5 Sudoeste 13 Noroeste 0 -- -- 83
2019-09-24 03:00:00 11.1 2 Oeste 5 Sur 0 -- -- 90
2019-09-24 02:00:00 11.7 2 Norte 5 Noroeste 0 -- -- 87
2019-09-24 01:00:00 13.2 3 Noroeste 12 Norte 0 -- -- 81
2019-09-24 00:00:00 15 7 Noroeste 15 Norte 0 -- -- 72
2019-09-23 23:00:00 14.8 6 Norte 17 Norte 0 -- -- 72
2019-09-23 22:00:00 15.8 12 Norte 20 Norte 0 -- -- 67
2019-09-23 21:00:00 16.3 11 Norte 18 Noroeste 0 -- -- 65
2019-09-23 20:00:00 16.6 9 Norte 22 Noroeste 0 -- -- 65
2019-09-23 19:00:00 16.9 9 Noroeste 25 Norte 0 -- -- 63
2019-09-23 18:00:00 17.3 7 Norte 22 Noroeste 0 -- -- 63
2019-09-23 17:00:00 17 10 Noroeste 27 Noroeste 0 -- -- 61
2019-09-23 16:00:00 17 13 Norte 28 Noroeste 0 -- -- 61
2019-09-23 15:00:00 16.7 10 Noroeste 36 Noroeste 0 -- -- 62
2019-09-23 14:00:00 16 16 Oeste 27 Oeste 0 -- -- 67
2019-09-23 13:00:00 14.7 12 Noroeste 23 Norte 0 -- -- 71
2019-09-23 12:00:00 12.9 13 Norte 26 Norte 0 -- -- 82
2019-09-23 11:00:00 11.2 9 Noroeste 15 Oeste 0 -- -- 90
2019-09-23 10:00:00 9.5 5 Noroeste 17 Noroeste 0 -- -- 93
2019-09-23 09:00:00 8.9 6 Norte 15 Norte 0 -- -- 98
2019-09-23 08:00:00 7.7 4 Este 8 Este 0 -- -- 97
2019-09-23 07:00:00 8.1 0 Calma 9 Este 0 -- -- 98
2019-09-23 06:00:00 7.7 2 Sudeste 10 Este 0 -- -- 95
2019-09-23 05:00:00 7.6 3 Este 11 Este 0 -- -- 95
2019-09-23 04:00:00 7.9 3 Este 14 Este 0 -- -- 95
2019-09-23 03:00:00 7.6 10 Este 13 Este 0 -- -- 94
2019-09-23 02:00:00 8 6 Este 13 Este 0 -- -- 94
2019-09-23 01:00:00 9.5 0 Calma 4 Sudeste 0 -- -- 91
2019-09-23 00:00:00 10.8 0 Calma 12 Sur 0 -- -- 90
2019-09-22 23:00:00 11.8 6 Sudeste 19 Sur 0 -- -- 88
2019-09-22 22:00:00 13 4 Sur 20 Sur 0 -- -- 84
2019-09-22 21:00:00 14.4 4 Sur 16 Sudeste 0 -- -- 75
2019-09-22 20:00:00 16.7 5 Noroeste 18 Noroeste 0 -- -- 52
2019-09-22 19:00:00 17.7 12 Noroeste 31 Norte 0 -- -- 49
2019-09-22 18:00:00 18.7 11 Norte 28 Norte 0 -- -- 48
2019-09-22 17:00:00 18.5 14 Noroeste 33 Noroeste 0 -- -- 48
2019-09-22 16:00:00 18.4 13 Norte 32 Noroeste 0 -- -- 49
2019-09-22 15:00:00 16.6 15 Noroeste 30 Norte 0 -- -- 55
2019-09-22 14:00:00 16 13 Norte 36 Norte 0 -- -- 61
2019-09-22 13:00:00 15.3 12 Norte 32 Oeste 0 -- -- 69
2019-09-22 12:00:00 13.9 12 Norte 24 Norte 0 -- -- 76
2019-09-22 11:00:00 12.4 12 Noroeste 21 Norte 0 -- -- 86
2019-09-22 10:00:00 11.2 6 Norte 11 Norte 0 -- -- 93
2019-09-22 09:00:00 10.1 4 Noroeste 14 Noroeste 0 -- -- 94
2019-09-22 08:00:00 9.1 5 Noroeste 15 Norte 0 -- -- 94
2019-09-22 07:00:00 10 7 Noroeste 20 Noroeste 0 -- -- 89
2019-09-22 06:00:00 10.7 9 Noroeste 19 Oeste 0 -- -- 86
2019-09-22 05:00:00 12.2 8 Norte 24 Noroeste 0 -- -- 83
2019-09-22 04:00:00 13.7 5 Noroeste 17 Noroeste 0 -- -- 93
2019-09-22 03:00:00 14.4 11 Norte 30 Noroeste 2.4 -- -- 94
2019-09-22 02:00:00 15 11 Oeste 30 Noroeste 0.2 -- -- 95
2019-09-22 01:00:00 15.1 15 Noroeste 46 Oeste 0.6 -- -- 94
2019-09-22 00:00:00 15.3 9 Oeste 36 Oeste 0.4 -- -- 92
2019-09-21 23:00:00 15.3 12 Noroeste 31 Oeste 0.2 -- -- 92
2019-09-21 22:00:00 15.8 13 Noroeste 33 Oeste 0.2 -- -- 90
2019-09-21 21:00:00 15.9 12 Noroeste 34 Oeste 0 -- -- 90
2019-09-21 20:00:00 16 13 Noroeste 31 Oeste 0 -- -- 90
2019-09-21 19:00:00 15.6 9 Oeste 27 Oeste 0 -- -- 93
2019-09-21 18:00:00 15.2 11 Noroeste 30 Oeste 0.4 -- -- 93
2019-09-21 17:00:00 15.8 13 Noroeste 38 Oeste 0 -- -- 90
2019-09-21 16:00:00 16.2 19 Noroeste 38 Noroeste 0 -- -- 86
2019-09-21 15:00:00 17.4 17 Noroeste 37 Noroeste 0 -- -- 77
2019-09-21 14:00:00 17.8 18 Noroeste 31 Oeste 0 -- -- 74
2019-09-21 13:00:00 17 10 Noroeste 35 Noroeste 0.2 -- -- 78
2019-09-21 12:00:00 16.4 10 Noroeste 31 Noroeste 0 -- -- 83
2019-09-21 11:00:00 15.6 8 Noroeste 28 Noroeste 0 -- -- 89
2019-09-21 10:00:00 14.9 5 Oeste 17 Noroeste 0 -- -- 92
2019-09-21 09:00:00 13.9 6 Oeste 18 Oeste 0 -- -- 96
2019-09-21 08:00:00 13.4 3 Oeste 14 Noroeste 0 -- -- 95
2019-09-21 07:00:00 13.3 6 Noroeste 15 Noroeste 0 -- -- 94
2019-09-21 06:00:00 13.6 6 Oeste 17 Noroeste 0 -- -- 92
2019-09-21 05:00:00 13 4 Noroeste 8 Noroeste 0 -- -- 98
2019-09-21 04:00:00 12.8 3 Norte 10 Este 0 -- -- 97
2019-09-21 03:00:00 13.6 0 Calma 7 Sur 0 -- -- 96
2019-09-21 02:00:00 14 2 Sudeste 8 Norte 1.8 -- -- 96
2019-09-21 01:00:00 14.3 3 Sudoeste 12 Sudoeste 0.2 -- -- 95
2019-09-21 00:00:00 14.3 0 Calma 8 Este 0.4 -- -- 97
2019-09-20 23:00:00 14.8 0 Calma 18 Oeste 2.4 -- -- 95
2019-09-20 22:00:00 14.8 3 Norte 9 Oeste 0 -- -- 96
2019-09-20 21:00:00 14.9 3 Este 12 Este 0 -- -- 94
2019-09-20 20:00:00 15.5 10 Este 18 Sudoeste 4.8 -- -- 92
2019-09-20 19:00:00 16.3 5 Este 12 Este 1 -- -- 93
2019-09-20 18:00:00 16.8 5 Sudeste 16 Sudeste 0.2 -- -- 86
2019-09-20 17:00:00 18 6 Sur 36 Sudoeste 0.4 -- -- 79
2019-09-20 16:00:00 23.8 10 Sur 20 Sudoeste 0 -- -- 58
2019-09-20 15:00:00 21.5 5 Noroeste 14 Oeste 0.4 -- -- 67
2019-09-20 14:00:00 20.7 9 Oeste 17 Oeste 0 -- -- 69
2019-09-20 13:00:00 18.5 4 Sudoeste 8 Sudoeste 0 -- -- 80
2019-09-20 12:00:00 14.9 3 Sudoeste 11 Sudoeste 0 -- -- 91
2019-09-20 11:00:00 13.9 4 Noroeste 6 Noroeste 0 -- -- 93
2019-09-20 10:00:00 11.6 2 Este 6 Este 0 -- -- 98
2019-09-20 09:00:00 9.8 3 Sudeste 9 Este 0 -- -- 98
2019-09-20 08:00:00 8.7 7 Este 10 Este 0 -- -- 97
2019-09-20 07:00:00 8.7 0 Calma 4 Este 0 -- -- 96
2019-09-20 06:00:00 9.1 0 Calma 4 Este 0 -- -- 94
2019-09-20 05:00:00 10.2 0 Calma 12 Este 0 -- -- 95
2019-09-20 04:00:00 10.5 0 Calma 13 Nordeste 0 -- -- 94
2019-09-20 03:00:00 11.5 6 Este 13 Este 0 -- -- 94
2019-09-20 02:00:00 12.2 6 Este 14 Este 0 -- -- 93
2019-09-20 01:00:00 13 7 Este 10 Este 0 -- -- 92
2019-09-20 00:00:00 13.8 3 Este 7 Este 0 -- -- 91
2019-09-19 23:00:00 15.2 0 Calma 8 Sudeste 0 -- -- 89
2019-09-19 22:00:00 16.7 4 Sudeste 15 Sudeste 0 -- -- 84
2019-09-19 21:00:00 18 6 Sudeste 13 Sudeste 0 -- -- 79
2019-09-19 20:00:00 20.2 7 Sudeste 19 Sudeste 0 -- -- 72
2019-09-19 19:00:00 22.2 7 Sudeste 22 Este 0 -- -- 57
2019-09-19 18:00:00 23.5 9 Sur 19 Sudeste 0 -- -- 53
2019-09-19 17:00:00 23.6 10 Sudeste 21 Sur 0 -- -- 53
2019-09-19 16:00:00 23.4 8 Sur 19 Sur 0 -- -- 54
2019-09-19 15:00:00 22.5 10 Sur 17 Sudoeste 0 -- -- 58
2019-09-19 14:00:00 21.8 9 Sudoeste 19 Sudoeste 0 -- -- 54
2019-09-19 13:00:00 20.4 8 Sur 22 Sudoeste 0 -- -- 64
2019-09-19 12:00:00 18.1 8 Sur 18 Sur 0 -- -- 73
2019-09-19 11:00:00 14.4 3 Sudoeste 6 Sudoeste 0 -- -- 92
2019-09-19 10:00:00 11.4 3 Sur 4 Sur 0 -- -- 100
2019-09-19 09:00:00 9.3 4 Este 9 Este 0 -- -- 100
2019-09-19 08:00:00 9.5 5 Este 14 Este 0 -- -- 99
2019-09-19 07:00:00 10.7 4 Este 6 Sudeste 0 -- -- 98
2019-09-19 06:00:00 11.6 0 Calma 4 Nordeste 0 -- -- 99
2019-09-19 05:00:00 11.1 0 Calma 11 Este 0 -- -- 98
2019-09-19 04:00:00 11.2 6 Este 12 Sudeste 0 -- -- 95
2019-09-19 03:00:00 12.3 4 Sur 12 Sudeste 0 -- -- 97
2019-09-19 02:00:00 11.8 2 Sur 8 Este 0 -- -- 94
2019-09-19 01:00:00 13 5 Sudeste 9 Este 0 -- -- 95
2019-09-19 00:00:00 13.8 2 Este 10 Sudeste 0 -- -- 92
2019-09-18 23:00:00 14.8 2 Norte 16 Sur 0 -- -- 90
2019-09-18 22:00:00 15.9 5 Sur 24 Sudeste 0 -- -- 89
2019-09-18 21:00:00 16.6 9 Sur 25 Este 0 -- -- 85
2019-09-18 20:00:00 18.3 11 Sur 24 Sudeste 0 -- -- 80
2019-09-18 19:00:00 20.1 13 Sur 28 Sur 0 -- -- 75
2019-09-18 18:00:00 21.2 7 Sudeste 21 Sur 0 -- -- 66
2019-09-18 17:00:00 20.9 9 Sudeste 25 Sudeste 0 -- -- 63
2019-09-18 16:00:00 20 8 Sudeste 26 Sur 0 -- -- 69
2019-09-18 15:00:00 21.1 10 Sudeste 24 Sudeste 0 -- -- 66
2019-09-18 14:00:00 20.9 10 Sudeste 21 Sudeste 0 -- -- 65
2019-09-18 13:00:00 20.1 12 Sudeste 20 Sudeste 0 -- -- 69
2019-09-18 12:00:00 17.9 4 Sudeste 13 Este 0 -- -- 84
2019-09-18 11:00:00 16.5 5 Norte 11 Norte 0 -- -- 88
2019-09-18 10:00:00 14.7 0 Calma 5 Norte 0.2 -- -- 96
2019-09-18 09:00:00 13.8 0 Calma 3 Este 0 -- -- 98
2019-09-18 08:00:00 13.2 0 Calma 6 Sudeste 0 -- -- 97
2019-09-18 07:00:00 13.2 3 Este 8 Este 0 -- -- 96
2019-09-18 06:00:00 13.7 4 Nordeste 8 Nordeste 0.4 -- -- 95
2019-09-18 05:00:00 13.8 2 Norte 28 Norte 2.8 -- -- 95
2019-09-18 04:00:00 14 4 Norte 34 Oeste 4.2 -- -- 92
2019-09-18 03:00:00 15.5 3 Norte 19 Norte 0.2 -- -- 83
2019-09-18 02:00:00 16.1 6 Norte 24 Noroeste 0 -- -- 72
2019-09-18 01:00:00 16.2 5 Norte 11 Sur 0 -- -- 92
2019-09-18 00:00:00 16.9 5 Sur 15 Sudeste 0 -- -- 92
2019-09-17 23:00:00 17.4 0 Calma 13 Sudeste 0 -- -- 89
2019-09-17 22:00:00 18.1 7 Sudeste 18 Sur 0 -- -- 89
2019-09-17 21:00:00 19.5 6 Sur 13 Sur 0 -- -- 84